Terminal Aerodrome Forecast
Issued by NWS

Home | Current Version | Previous Version | Text Only | Print | Product List | Glossary On
Versions: 1 2 3 4 5 6 7 8 9 10 11 12
000
FTAK31 PAJN 052300
TAFAGY
TAF
PAGY 052324Z 0600/0624 21010KT P6SM BKN150
     FM060400 VRB03KT P6SM SCT150
     FM061100 04004KT P6SM SCT150
     FM061800 23006KT P6SM FEW200
     FM062300 21015KT P6SM FEW200
      AMD LTD TO CLD VIS AND WIND=

USA.gov is the U.S. government's official web portal to all federal, state and local government web resources and services.